Greensboro, NC (27407)

9:41 AM EDT on September 25, 2016 (GMT -0400)
Sedge Field | | Change Station

Elev 843 ft 36.01 °N, 79.87 °W | Updated 3 minutes ago

Overcast
Overcast
70.5 °F
Feels Like 70.5 °F
N
0.6
Wind Variable Wind from West
Gusts 1.2 mph

Today
High -- | Low -- °F
--% Chance of Precip.
Yesterday
High -- | Low -- °F
Precip. -- in
Pressure 30.16 in
Visibility 1.8 miles
Clouds Overcast 400 ft
Dew Point 66 °F
Humidity 84%
Rainfall 0.00 in
Snow Depth Not available.
7:10 AM 7:11 PM
Waning Crescent, 27% visible
SPECI KGSO 251327Z 05007KT 1 3/4SM BR OVC004 21/20 A3016 RMK AO2 T02060200
Pressure 30.16 in
Visibility 1.8 miles
Clouds Overcast 400 ft
Dew Point 66 °F
Humidity 84%
Rainfall 0.00 in
Snow Depth Not available.
7:10 AM 7:11 PM
Waning Crescent, 27% visible
SPECI KGSO 251327Z 05007KT 1 3/4SM BR OVC004 21/20 A3016 RMK AO2 T02060200

10-Day Weather Forecast

Almanac

Astronomy

Sep. 25, 2016 Rise Set
Actual Time
Civil Twilight
Nautical Twilight
Astronomical Twilight
Moon
Length of Visible Light
Length of Day
Tomorrow will be .
, % of the Moon is Illuminated

Today's Extremes

State Highs State Lows

Community

WunderPhotos

Upload Photos

1,941,609 photos uploaded!

WunderBlog® & News

Nearby

Air Quality

  Air Quality AQ Index Pollutant
Not available.

Snow Depth

Station Depth Elevation

Earthquake Activity

City Distance Mag. Time & Date
Minimum magnitude displayed is 2.5.

Coastal Water Temperatures

Place Temperature

Stations

Nearby Weather Stations

Station Location Temp. Windchill Dew Point Humidity Wind Precip. Elev Updated Type
                   

Watches & Warnings

There are currently no watches in effect.